sensor_id;sensor_type;location;lat;lon;timestamp;P1;durP1;ratioP1;P2;durP2;ratioP2
4244;SDS011;2136;48.502;9.194;2023-07-16T00:00:46;9.00;;;4.30;;
4244;SDS011;2136;48.502;9.194;2023-07-16T00:03:13;5.97;;;4.10;;
4244;SDS011;2136;48.502;9.194;2023-07-16T00:05:40;10.23;;;5.03;;
4244;SDS011;2136;48.502;9.194;2023-07-16T00:08:08;5.20;;;2.70;;
4244;SDS011;2136;48.502;9.194;2023-07-16T00:10:35;0.40;;;0.40;;
4244;SDS011;2136;48.502;9.194;2023-07-16T00:13:02;0.40;;;0.40;;
4244;SDS011;2136;48.502;9.194;2023-07-16T00:15:29;0.60;;;0.60;;
4244;SDS011;2136;48.502;9.194;2023-07-16T00:17:56;0.40;;;0.40;;
4244;SDS011;2136;48.502;9.194;2023-07-16T00:20:23;0.40;;;0.40;;
4244;SDS011;2136;48.502;9.194;2023-07-16T00:22:49;0.40;;;0.40;;
4244;SDS011;2136;48.502;9.194;2023-07-16T00:25:18;0.50;;;0.50;;
4244;SDS011;2136;48.502;9.194;2023-07-16T00:27:45;0.40;;;0.40;;
4244;SDS011;2136;48.502;9.194;2023-07-16T00:30:12;0.40;;;0.40;;
4244;SDS011;2136;48.502;9.194;2023-07-16T00:32:39;0.40;;;0.40;;
4244;SDS011;2136;48.502;9.194;2023-07-16T00:35:06;2.37;;;2.27;;
4244;SDS011;2136;48.502;9.194;2023-07-16T00:37:33;3.93;;;2.47;;
4244;SDS011;2136;48.502;9.194;2023-07-16T00:40:00;2.60;;;2.40;;
4244;SDS011;2136;48.502;9.194;2023-07-16T00:42:28;3.13;;;2.23;;
4244;SDS011;2136;48.502;9.194;2023-07-16T00:44:55;3.07;;;2.60;;
4244;SDS011;2136;48.502;9.194;2023-07-16T00:47:22;2.73;;;2.50;;
4244;SDS011;2136;48.502;9.194;2023-07-16T00:49:49;3.33;;;2.47;;
4244;SDS011;2136;48.502;9.194;2023-07-16T00:52:18;4.17;;;2.63;;
4244;SDS011;2136;48.502;9.194;2023-07-16T00:54:47;2.40;;;2.20;;
4244;SDS011;2136;48.502;9.194;2023-07-16T00:57:15;3.23;;;2.90;;
4244;SDS011;2136;48.502;9.194;2023-07-16T00:59:43;3.93;;;2.00;;
4244;SDS011;2136;48.502;9.194;2023-07-16T01:02:10;2.50;;;1.93;;
4244;SDS011;2136;48.502;9.194;2023-07-16T01:04:37;2.13;;;1.80;;
4244;SDS011;2136;48.502;9.194;2023-07-16T01:07:04;2.00;;;1.80;;
4244;SDS011;2136;48.502;9.194;2023-07-16T01:09:34;1.70;;;1.60;;
4244;SDS011;2136;48.502;9.194;2023-07-16T01:12:07;1.40;;;1.30;;
4244;SDS011;2136;48.502;9.194;2023-07-16T01:14:34;1.20;;;1.20;;
4244;SDS011;2136;48.502;9.194;2023-07-16T01:17:04;1.37;;;1.27;;
4244;SDS011;2136;48.502;9.194;2023-07-16T01:19:31;1.60;;;1.20;;
4244;SDS011;2136;48.502;9.194;2023-07-16T01:22:02;1.33;;;1.23;;
4244;SDS011;2136;48.502;9.194;2023-07-16T01:24:53;1.40;;;1.30;;
4244;SDS011;2136;48.502;9.194;2023-07-16T01:27:35;1.13;;;1.10;;
4244;SDS011;2136;48.502;9.194;2023-07-16T01:30:25;2.20;;;1.20;;
4244;SDS011;2136;48.502;9.194;2023-07-16T01:32:53;1.20;;;1.10;;
4244;SDS011;2136;48.502;9.194;2023-07-16T01:35:22;1.40;;;1.30;;
4244;SDS011;2136;48.502;9.194;2023-07-16T01:37:49;1.30;;;1.20;;
4244;SDS011;2136;48.502;9.194;2023-07-16T01:40:16;1.20;;;1.20;;
4244;SDS011;2136;48.502;9.194;2023-07-16T01:42:43;1.27;;;1.17;;
4244;SDS011;2136;48.502;9.194;2023-07-16T01:45:10;1.40;;;1.30;;
4244;SDS011;2136;48.502;9.194;2023-07-16T01:47:43;1.40;;;1.30;;
4244;SDS011;2136;48.502;9.194;2023-07-16T01:50:17;1.53;;;1.37;;
4244;SDS011;2136;48.502;9.194;2023-07-16T01:52:44;3.50;;;1.20;;
4244;SDS011;2136;48.502;9.194;2023-07-16T01:55:10;1.80;;;1.33;;
4244;SDS011;2136;48.502;9.194;2023-07-16T01:57:37;1.27;;;1.07;;
4244;SDS011;2136;48.502;9.194;2023-07-16T02:00:04;3.13;;;2.40;;
4244;SDS011;2136;48.502;9.194;2023-07-16T02:02:33;4.93;;;1.80;;
4244;SDS011;2136;48.502;9.194;2023-07-16T02:05:01;1.40;;;1.30;;
4244;SDS011;2136;48.502;9.194;2023-07-16T02:07:28;1.50;;;1.40;;
4244;SDS011;2136;48.502;9.194;2023-07-16T02:09:55;3.20;;;1.00;;
4244;SDS011;2136;48.502;9.194;2023-07-16T02:12:22;1.83;;;1.73;;
4244;SDS011;2136;48.502;9.194;2023-07-16T02:14:49;1.67;;;1.43;;
4244;SDS011;2136;48.502;9.194;2023-07-16T02:17:15;13.03;;;1.53;;
4244;SDS011;2136;48.502;9.194;2023-07-16T02:19:42;1.73;;;1.37;;
4244;SDS011;2136;48.502;9.194;2023-07-16T02:22:10;1.40;;;1.30;;
4244;SDS011;2136;48.502;9.194;2023-07-16T02:24:37;1.40;;;1.30;;
4244;SDS011;2136;48.502;9.194;2023-07-16T02:27:04;1.57;;;1.47;;
4244;SDS011;2136;48.502;9.194;2023-07-16T02:29:32;1.73;;;1.63;;
4244;SDS011;2136;48.502;9.194;2023-07-16T02:31:58;1.30;;;1.20;;
4244;SDS011;2136;48.502;9.194;2023-07-16T02:34:25;1.27;;;1.17;;
4244;SDS011;2136;48.502;9.194;2023-07-16T02:36:52;0.90;;;0.90;;
4244;SDS011;2136;48.502;9.194;2023-07-16T02:39:20;1.20;;;1.03;;
4244;SDS011;2136;48.502;9.194;2023-07-16T02:41:47;3.03;;;1.40;;
4244;SDS011;2136;48.502;9.194;2023-07-16T02:44:14;1.00;;;1.00;;
4244;SDS011;2136;48.502;9.194;2023-07-16T02:46:40;3.50;;;1.30;;
4244;SDS011;2136;48.502;9.194;2023-07-16T02:49:09;1.20;;;1.20;;
4244;SDS011;2136;48.502;9.194;2023-07-16T02:51:36;2.30;;;1.10;;
4244;SDS011;2136;48.502;9.194;2023-07-16T02:54:02;1.10;;;1.10;;
4244;SDS011;2136;48.502;9.194;2023-07-16T02:56:31;1.30;;;1.20;;
4244;SDS011;2136;48.502;9.194;2023-07-16T02:58:58;1.30;;;1.30;;
4244;SDS011;2136;48.502;9.194;2023-07-16T03:01:25;2.10;;;1.40;;
4244;SDS011;2136;48.502;9.194;2023-07-16T03:03:52;2.27;;;1.73;;
4244;SDS011;2136;48.502;9.194;2023-07-16T03:06:18;2.60;;;1.20;;
4244;SDS011;2136;48.502;9.194;2023-07-16T03:08:45;1.53;;;1.43;;
4244;SDS011;2136;48.502;9.194;2023-07-16T03:11:13;4.13;;;1.80;;
4244;SDS011;2136;48.502;9.194;2023-07-16T03:13:41;1.63;;;1.53;;
4244;SDS011;2136;48.502;9.194;2023-07-16T03:16:08;3.00;;;1.40;;
4244;SDS011;2136;48.502;9.194;2023-07-16T03:18:35;3.03;;;1.50;;
4244;SDS011;2136;48.502;9.194;2023-07-16T03:21:02;1.30;;;1.30;;
4244;SDS011;2136;48.502;9.194;2023-07-16T03:23:29;1.60;;;1.50;;
4244;SDS011;2136;48.502;9.194;2023-07-16T03:25:56;1.50;;;1.40;;
4244;SDS011;2136;48.502;9.194;2023-07-16T03:28:23;1.60;;;1.50;;
4244;SDS011;2136;48.502;9.194;2023-07-16T03:30:51;1.57;;;1.27;;
4244;SDS011;2136;48.502;9.194;2023-07-16T03:33:19;1.50;;;1.40;;
4244;SDS011;2136;48.502;9.194;2023-07-16T03:35:46;3.83;;;1.60;;
4244;SDS011;2136;48.502;9.194;2023-07-16T03:38:13;1.80;;;1.40;;
4244;SDS011;2136;48.502;9.194;2023-07-16T03:40:42;1.83;;;1.70;;
4244;SDS011;2136;48.502;9.194;2023-07-16T03:43:12;2.20;;;1.87;;
4244;SDS011;2136;48.502;9.194;2023-07-16T03:45:39;1.27;;;1.20;;
4244;SDS011;2136;48.502;9.194;2023-07-16T03:48:07;1.67;;;1.57;;
4244;SDS011;2136;48.502;9.194;2023-07-16T03:50:34;1.27;;;1.17;;
4244;SDS011;2136;48.502;9.194;2023-07-16T03:53:01;1.70;;;1.60;;
4244;SDS011;2136;48.502;9.194;2023-07-16T03:55:29;1.70;;;1.60;;
4244;SDS011;2136;48.502;9.194;2023-07-16T03:57:55;1.63;;;1.50;;
4244;SDS011;2136;48.502;9.194;2023-07-16T04:00:22;1.10;;;1.10;;
4244;SDS011;2136;48.502;9.194;2023-07-16T04:02:49;2.63;;;1.90;;
4244;SDS011;2136;48.502;9.194;2023-07-16T04:05:17;2.80;;;1.57;;
4244;SDS011;2136;48.502;9.194;2023-07-16T04:07:44;1.83;;;1.50;;
4244;SDS011;2136;48.502;9.194;2023-07-16T04:10:11;2.20;;;1.50;;
4244;SDS011;2136;48.502;9.194;2023-07-16T04:12:38;3.03;;;1.30;;
4244;SDS011;2136;48.502;9.194;2023-07-16T04:15:06;1.50;;;1.40;;
4244;SDS011;2136;48.502;9.194;2023-07-16T04:17:34;1.60;;;1.50;;
4244;SDS011;2136;48.502;9.194;2023-07-16T04:20:01;1.20;;;1.10;;
4244;SDS011;2136;48.502;9.194;2023-07-16T04:22:31;1.43;;;1.30;;
4244;SDS011;2136;48.502;9.194;2023-07-16T04:24:58;3.77;;;1.60;;
4244;SDS011;2136;48.502;9.194;2023-07-16T04:27:25;2.70;;;1.20;;
4244;SDS011;2136;48.502;9.194;2023-07-16T04:29:52;1.63;;;1.53;;
4244;SDS011;2136;48.502;9.194;2023-07-16T04:32:18;2.20;;;1.33;;
4244;SDS011;2136;48.502;9.194;2023-07-16T04:34:45;1.30;;;1.23;;
4244;SDS011;2136;48.502;9.194;2023-07-16T04:37:12;2.97;;;1.20;;
4244;SDS011;2136;48.502;9.194;2023-07-16T04:39:40;8.13;;;1.40;;
4244;SDS011;2136;48.502;9.194;2023-07-16T04:42:07;12.43;;;2.50;;
4244;SDS011;2136;48.502;9.194;2023-07-16T04:44:34;1.60;;;1.50;;
4244;SDS011;2136;48.502;9.194;2023-07-16T04:47:00;3.80;;;1.43;;
4244;SDS011;2136;48.502;9.194;2023-07-16T04:49:27;2.60;;;1.33;;
4244;SDS011;2136;48.502;9.194;2023-07-16T04:51:54;1.53;;;1.43;;
4244;SDS011;2136;48.502;9.194;2023-07-16T04:54:21;3.37;;;1.67;;
4244;SDS011;2136;48.502;9.194;2023-07-16T04:56:49;1.80;;;1.50;;
4244;SDS011;2136;48.502;9.194;2023-07-16T04:59:15;1.30;;;1.13;;
4244;SDS011;2136;48.502;9.194;2023-07-16T05:01:42;1.40;;;1.30;;
4244;SDS011;2136;48.502;9.194;2023-07-16T05:04:09;2.93;;;1.60;;
4244;SDS011;2136;48.502;9.194;2023-07-16T05:06:36;3.50;;;1.63;;
4244;SDS011;2136;48.502;9.194;2023-07-16T05:09:02;3.50;;;1.63;;
4244;SDS011;2136;48.502;9.194;2023-07-16T05:11:29;2.87;;;1.33;;
4244;SDS011;2136;48.502;9.194;2023-07-16T05:13:59;2.60;;;1.70;;
4244;SDS011;2136;48.502;9.194;2023-07-16T05:16:26;2.00;;;1.40;;
4244;SDS011;2136;48.502;9.194;2023-07-16T05:18:53;2.67;;;1.67;;
4244;SDS011;2136;48.502;9.194;2023-07-16T05:21:20;2.37;;;1.20;;
4244;SDS011;2136;48.502;9.194;2023-07-16T05:23:46;2.00;;;1.67;;
4244;SDS011;2136;48.502;9.194;2023-07-16T05:26:13;2.43;;;1.60;;
4244;SDS011;2136;48.502;9.194;2023-07-16T05:28:40;8.33;;;1.17;;
4244;SDS011;2136;48.502;9.194;2023-07-16T05:31:08;1.77;;;1.20;;
4244;SDS011;2136;48.502;9.194;2023-07-16T05:33:35;7.93;;;2.13;;
4244;SDS011;2136;48.502;9.194;2023-07-16T05:36:02;4.00;;;1.90;;
4244;SDS011;2136;48.502;9.194;2023-07-16T05:38:29;1.73;;;1.57;;
4244;SDS011;2136;48.502;9.194;2023-07-16T05:40:59;3.43;;;1.40;;
4244;SDS011;2136;48.502;9.194;2023-07-16T05:43:27;1.83;;;1.50;;
4244;SDS011;2136;48.502;9.194;2023-07-16T05:45:54;1.60;;;1.33;;
4244;SDS011;2136;48.502;9.194;2023-07-16T05:48:23;3.43;;;1.50;;
4244;SDS011;2136;48.502;9.194;2023-07-16T05:50:50;2.10;;;1.43;;
4244;SDS011;2136;48.502;9.194;2023-07-16T05:53:16;4.93;;;1.80;;
4244;SDS011;2136;48.502;9.194;2023-07-16T05:55:43;1.90;;;1.37;;
4244;SDS011;2136;48.502;9.194;2023-07-16T05:58:10;4.33;;;1.77;;
4244;SDS011;2136;48.502;9.194;2023-07-16T06:00:37;2.30;;;1.50;;
4244;SDS011;2136;48.502;9.194;2023-07-16T06:03:04;4.40;;;2.37;;
4244;SDS011;2136;48.502;9.194;2023-07-16T06:05:32;2.40;;;1.30;;
4244;SDS011;2136;48.502;9.194;2023-07-16T06:07:59;2.03;;;1.50;;
4244;SDS011;2136;48.502;9.194;2023-07-16T06:10:26;1.73;;;1.40;;
4244;SDS011;2136;48.502;9.194;2023-07-16T06:12:53;1.90;;;1.43;;
4244;SDS011;2136;48.502;9.194;2023-07-16T06:15:20;3.40;;;1.53;;
4244;SDS011;2136;48.502;9.194;2023-07-16T06:17:46;1.37;;;1.27;;
4244;SDS011;2136;48.502;9.194;2023-07-16T06:20:13;1.43;;;1.27;;
4244;SDS011;2136;48.502;9.194;2023-07-16T06:22:42;2.10;;;1.90;;
4244;SDS011;2136;48.502;9.194;2023-07-16T06:25:09;2.07;;;1.30;;
4244;SDS011;2136;48.502;9.194;2023-07-16T06:27:36;1.87;;;1.40;;
4244;SDS011;2136;48.502;9.194;2023-07-16T06:30:03;1.20;;;1.10;;
4244;SDS011;2136;48.502;9.194;2023-07-16T06:32:30;4.40;;;1.60;;
4244;SDS011;2136;48.502;9.194;2023-07-16T06:34:57;5.50;;;1.73;;
4244;SDS011;2136;48.502;9.194;2023-07-16T06:37:24;6.67;;;2.53;;
4244;SDS011;2136;48.502;9.194;2023-07-16T06:39:52;2.70;;;1.60;;
4244;SDS011;2136;48.502;9.194;2023-07-16T06:42:19;5.87;;;1.90;;
4244;SDS011;2136;48.502;9.194;2023-07-16T06:44:46;2.40;;;1.90;;
4244;SDS011;2136;48.502;9.194;2023-07-16T06:47:13;2.77;;;1.90;;
4244;SDS011;2136;48.502;9.194;2023-07-16T06:49:40;3.30;;;1.20;;
4244;SDS011;2136;48.502;9.194;2023-07-16T06:52:07;2.70;;;1.57;;
4244;SDS011;2136;48.502;9.194;2023-07-16T06:54:34;2.37;;;1.83;;
4244;SDS011;2136;48.502;9.194;2023-07-16T06:57:03;3.27;;;1.67;;
4244;SDS011;2136;48.502;9.194;2023-07-16T06:59:29;2.17;;;1.80;;
4244;SDS011;2136;48.502;9.194;2023-07-16T07:01:56;2.03;;;1.23;;
4244;SDS011;2136;48.502;9.194;2023-07-16T07:04:23;2.70;;;1.50;;
4244;SDS011;2136;48.502;9.194;2023-07-16T07:06:50;3.83;;;2.00;;
4244;SDS011;2136;48.502;9.194;2023-07-16T07:09:17;1.47;;;1.37;;
4244;SDS011;2136;48.502;9.194;2023-07-16T07:11:44;3.77;;;2.07;;
4244;SDS011;2136;48.502;9.194;2023-07-16T07:14:12;1.57;;;1.40;;
4244;SDS011;2136;48.502;9.194;2023-07-16T07:16:39;1.77;;;1.67;;
4244;SDS011;2136;48.502;9.194;2023-07-16T07:19:06;1.67;;;1.57;;
4244;SDS011;2136;48.502;9.194;2023-07-16T07:21:32;1.53;;;1.43;;
4244;SDS011;2136;48.502;9.194;2023-07-16T07:23:59;1.83;;;1.60;;
4244;SDS011;2136;48.502;9.194;2023-07-16T07:26:26;6.00;;;1.50;;
4244;SDS011;2136;48.502;9.194;2023-07-16T07:28:53;1.73;;;1.60;;
4244;SDS011;2136;48.502;9.194;2023-07-16T07:31:22;3.43;;;2.37;;
4244;SDS011;2136;48.502;9.194;2023-07-16T07:33:48;2.60;;;1.70;;
4244;SDS011;2136;48.502;9.194;2023-07-16T07:36:15;1.80;;;1.70;;
4244;SDS011;2136;48.502;9.194;2023-07-16T07:38:42;2.50;;;1.43;;
4244;SDS011;2136;48.502;9.194;2023-07-16T07:41:09;4.50;;;1.70;;
4244;SDS011;2136;48.502;9.194;2023-07-16T07:43:36;2.93;;;1.50;;
4244;SDS011;2136;48.502;9.194;2023-07-16T07:46:02;2.50;;;1.43;;
4244;SDS011;2136;48.502;9.194;2023-07-16T07:48:32;2.07;;;1.70;;
4244;SDS011;2136;48.502;9.194;2023-07-16T07:50:59;1.40;;;1.30;;
4244;SDS011;2136;48.502;9.194;2023-07-16T07:53:25;3.23;;;1.80;;
4244;SDS011;2136;48.502;9.194;2023-07-16T07:55:52;1.70;;;1.60;;
4244;SDS011;2136;48.502;9.194;2023-07-16T07:58:20;1.93;;;1.70;;
4244;SDS011;2136;48.502;9.194;2023-07-16T08:00:47;6.10;;;1.50;;
4244;SDS011;2136;48.502;9.194;2023-07-16T08:03:14;3.70;;;2.30;;
4244;SDS011;2136;48.502;9.194;2023-07-16T08:05:42;2.57;;;1.70;;
4244;SDS011;2136;48.502;9.194;2023-07-16T08:08:09;1.50;;;1.40;;
4244;SDS011;2136;48.502;9.194;2023-07-16T08:10:35;3.80;;;1.90;;
4244;SDS011;2136;48.502;9.194;2023-07-16T08:13:02;1.90;;;1.70;;
4244;SDS011;2136;48.502;9.194;2023-07-16T08:15:29;1.60;;;1.50;;
4244;SDS011;2136;48.502;9.194;2023-07-16T08:17:56;1.60;;;1.50;;
4244;SDS011;2136;48.502;9.194;2023-07-16T08:20:24;3.23;;;1.70;;
4244;SDS011;2136;48.502;9.194;2023-07-16T08:22:52;2.90;;;1.63;;
4244;SDS011;2136;48.502;9.194;2023-07-16T08:25:19;3.47;;;1.70;;
4244;SDS011;2136;48.502;9.194;2023-07-16T08:27:46;5.13;;;1.93;;
4244;SDS011;2136;48.502;9.194;2023-07-16T08:30:13;8.80;;;1.50;;
4244;SDS011;2136;48.502;9.194;2023-07-16T08:32:40;5.50;;;1.50;;
4244;SDS011;2136;48.502;9.194;2023-07-16T08:35:07;4.50;;;1.57;;
4244;SDS011;2136;48.502;9.194;2023-07-16T08:37:40;5.40;;;1.30;;
4244;SDS011;2136;48.502;9.194;2023-07-16T08:40:09;2.57;;;1.10;;
4244;SDS011;2136;48.502;9.194;2023-07-16T08:42:37;1.23;;;1.13;;
4244;SDS011;2136;48.502;9.194;2023-07-16T08:45:05;2.20;;;1.43;;
4244;SDS011;2136;48.502;9.194;2023-07-16T08:47:35;3.00;;;2.23;;
4244;SDS011;2136;48.502;9.194;2023-07-16T08:50:03;2.90;;;1.53;;
4244;SDS011;2136;48.502;9.194;2023-07-16T08:52:30;4.77;;;1.83;;
4244;SDS011;2136;48.502;9.194;2023-07-16T08:54:57;3.20;;;1.60;;
4244;SDS011;2136;48.502;9.194;2023-07-16T08:57:25;1.90;;;1.43;;
4244;SDS011;2136;48.502;9.194;2023-07-16T08:59:52;3.57;;;1.87;;
4244;SDS011;2136;48.502;9.194;2023-07-16T09:02:21;6.93;;;1.90;;
4244;SDS011;2136;48.502;9.194;2023-07-16T09:04:49;9.20;;;1.77;;
4244;SDS011;2136;48.502;9.194;2023-07-16T09:07:17;2.57;;;1.60;;
4244;SDS011;2136;48.502;9.194;2023-07-16T09:09:54;1.50;;;1.40;;
4244;SDS011;2136;48.502;9.194;2023-07-16T09:12:23;1.27;;;1.17;;
4244;SDS011;2136;48.502;9.194;2023-07-16T09:14:51;4.60;;;1.60;;
4244;SDS011;2136;48.502;9.194;2023-07-16T09:17:19;4.90;;;1.60;;
4244;SDS011;2136;48.502;9.194;2023-07-16T09:19:48;4.07;;;1.40;;
4244;SDS011;2136;48.502;9.194;2023-07-16T09:22:16;3.50;;;1.60;;
4244;SDS011;2136;48.502;9.194;2023-07-16T09:24:44;3.67;;;1.50;;
4244;SDS011;2136;48.502;9.194;2023-07-16T09:27:12;3.73;;;2.33;;
4244;SDS011;2136;48.502;9.194;2023-07-16T09:29:39;3.00;;;1.67;;
4244;SDS011;2136;48.502;9.194;2023-07-16T09:32:08;2.30;;;1.90;;
4244;SDS011;2136;48.502;9.194;2023-07-16T09:34:35;2.80;;;1.77;;
4244;SDS011;2136;48.502;9.194;2023-07-16T09:37:02;3.43;;;1.47;;
4244;SDS011;2136;48.502;9.194;2023-07-16T09:39:30;3.03;;;1.67;;
4244;SDS011;2136;48.502;9.194;2023-07-16T09:41:58;1.90;;;1.17;;
4244;SDS011;2136;48.502;9.194;2023-07-16T09:44:25;1.70;;;1.50;;
4244;SDS011;2136;48.502;9.194;2023-07-16T09:46:53;2.20;;;1.60;;
4244;SDS011;2136;48.502;9.194;2023-07-16T09:49:21;1.47;;;1.33;;
4244;SDS011;2136;48.502;9.194;2023-07-16T09:51:48;1.70;;;1.60;;
4244;SDS011;2136;48.502;9.194;2023-07-16T09:54:22;5.60;;;1.80;;
4244;SDS011;2136;48.502;9.194;2023-07-16T09:56:52;2.10;;;1.30;;
4244;SDS011;2136;48.502;9.194;2023-07-16T09:59:23;2.30;;;1.43;;
4244;SDS011;2136;48.502;9.194;2023-07-16T10:01:54;1.50;;;1.30;;
4244;SDS011;2136;48.502;9.194;2023-07-16T10:04:23;2.23;;;2.03;;
4244;SDS011;2136;48.502;9.194;2023-07-16T10:06:50;1.73;;;1.50;;
4244;SDS011;2136;48.502;9.194;2023-07-16T10:09:34;1.60;;;1.50;;
4244;SDS011;2136;48.502;9.194;2023-07-16T10:12:07;4.10;;;1.57;;
4244;SDS011;2136;48.502;9.194;2023-07-16T10:14:41;1.93;;;1.73;;
4244;SDS011;2136;48.502;9.194;2023-07-16T10:17:19;1.43;;;1.27;;
4244;SDS011;2136;48.502;9.194;2023-07-16T10:19:49;2.17;;;1.63;;
4244;SDS011;2136;48.502;9.194;2023-07-16T10:22:17;2.80;;;1.83;;
4244;SDS011;2136;48.502;9.194;2023-07-16T10:24:50;3.27;;;1.77;;
4244;SDS011;2136;48.502;9.194;2023-07-16T10:27:26;3.07;;;1.73;;
4244;SDS011;2136;48.502;9.194;2023-07-16T10:29:54;2.50;;;2.30;;
4244;SDS011;2136;48.502;9.194;2023-07-16T10:32:21;6.90;;;1.80;;
4244;SDS011;2136;48.502;9.194;2023-07-16T10:34:53;4.07;;;2.00;;
4244;SDS011;2136;48.502;9.194;2023-07-16T10:37:20;1.67;;;1.57;;
4244;SDS011;2136;48.502;9.194;2023-07-16T10:39:47;1.93;;;1.70;;
4244;SDS011;2136;48.502;9.194;2023-07-16T10:42:15;1.37;;;1.27;;
4244;SDS011;2136;48.502;9.194;2023-07-16T10:44:42;2.60;;;1.50;;
4244;SDS011;2136;48.502;9.194;2023-07-16T10:47:11;1.83;;;1.70;;
4244;SDS011;2136;48.502;9.194;2023-07-16T10:49:46;1.50;;;1.30;;
4244;SDS011;2136;48.502;9.194;2023-07-16T10:52:14;7.63;;;2.17;;
4244;SDS011;2136;48.502;9.194;2023-07-16T10:54:41;2.23;;;1.27;;
4244;SDS011;2136;48.502;9.194;2023-07-16T10:57:07;2.40;;;2.10;;
4244;SDS011;2136;48.502;9.194;2023-07-16T10:59:36;1.67;;;1.43;;
4244;SDS011;2136;48.502;9.194;2023-07-16T11:02:04;1.80;;;1.53;;
4244;SDS011;2136;48.502;9.194;2023-07-16T11:04:34;2.38;;;1.50;;
4244;SDS011;2136;48.502;9.194;2023-07-16T11:07:03;2.30;;;1.50;;
4244;SDS011;2136;48.502;9.194;2023-07-16T11:09:33;2.47;;;1.40;;
4244;SDS011;2136;48.502;9.194;2023-07-16T11:12:06;3.77;;;1.73;;
4244;SDS011;2136;48.502;9.194;2023-07-16T11:14:33;1.60;;;1.50;;
4244;SDS011;2136;48.502;9.194;2023-07-16T11:17:05;1.60;;;1.47;;
4244;SDS011;2136;48.502;9.194;2023-07-16T11:19:33;3.70;;;1.90;;
4244;SDS011;2136;48.502;9.194;2023-07-16T11:22:01;3.90;;;1.73;;
4244;SDS011;2136;48.502;9.194;2023-07-16T11:24:35;2.80;;;1.43;;
4244;SDS011;2136;48.502;9.194;2023-07-16T11:27:05;3.17;;;1.77;;
4244;SDS011;2136;48.502;9.194;2023-07-16T11:29:36;2.40;;;1.63;;
4244;SDS011;2136;48.502;9.194;2023-07-16T11:32:02;2.00;;;1.30;;
4244;SDS011;2136;48.502;9.194;2023-07-16T11:34:30;2.60;;;1.87;;
4244;SDS011;2136;48.502;9.194;2023-07-16T11:37:06;2.47;;;1.60;;
4244;SDS011;2136;48.502;9.194;2023-07-16T11:39:34;2.40;;;1.53;;
4244;SDS011;2136;48.502;9.194;2023-07-16T11:42:03;1.63;;;1.53;;
4244;SDS011;2136;48.502;9.194;2023-07-16T11:44:33;1.40;;;1.30;;
4244;SDS011;2136;48.502;9.194;2023-07-16T11:47:01;2.83;;;1.43;;
4244;SDS011;2136;48.502;9.194;2023-07-16T11:49:28;3.00;;;1.90;;
4244;SDS011;2136;48.502;9.194;2023-07-16T11:51:56;3.00;;;1.30;;
4244;SDS011;2136;48.502;9.194;2023-07-16T11:54:22;2.53;;;2.00;;
4244;SDS011;2136;48.502;9.194;2023-07-16T11:56:49;2.37;;;1.50;;
4244;SDS011;2136;48.502;9.194;2023-07-16T11:59:17;3.33;;;1.93;;
4244;SDS011;2136;48.502;9.194;2023-07-16T12:01:46;2.90;;;1.80;;
4244;SDS011;2136;48.502;9.194;2023-07-16T12:04:14;1.60;;;1.50;;
4244;SDS011;2136;48.502;9.194;2023-07-16T12:06:41;3.73;;;1.97;;
4244;SDS011;2136;48.502;9.194;2023-07-16T12:09:08;9.27;;;1.53;;
4244;SDS011;2136;48.502;9.194;2023-07-16T12:11:35;4.33;;;1.93;;
4244;SDS011;2136;48.502;9.194;2023-07-16T12:14:03;2.40;;;1.53;;
4244;SDS011;2136;48.502;9.194;2023-07-16T12:16:31;3.50;;;1.73;;
4244;SDS011;2136;48.502;9.194;2023-07-16T12:18:58;6.03;;;1.80;;
4244;SDS011;2136;48.502;9.194;2023-07-16T12:21:25;1.80;;;1.70;;
4244;SDS011;2136;48.502;9.194;2023-07-16T12:23:52;2.80;;;1.77;;
4244;SDS011;2136;48.502;9.194;2023-07-16T12:26:19;2.47;;;1.50;;
4244;SDS011;2136;48.502;9.194;2023-07-16T12:28:45;3.07;;;1.60;;
4244;SDS011;2136;48.502;9.194;2023-07-16T12:31:12;2.40;;;1.60;;
4244;SDS011;2136;48.502;9.194;2023-07-16T12:33:41;2.87;;;1.60;;
4244;SDS011;2136;48.502;9.194;2023-07-16T12:36:08;1.90;;;1.63;;
4244;SDS011;2136;48.502;9.194;2023-07-16T12:38:35;3.50;;;1.60;;
4244;SDS011;2136;48.502;9.194;2023-07-16T12:41:02;1.20;;;1.10;;
4244;SDS011;2136;48.502;9.194;2023-07-16T12:43:29;2.90;;;1.60;;
4244;SDS011;2136;48.502;9.194;2023-07-16T12:45:58;4.37;;;1.90;;
4244;SDS011;2136;48.502;9.194;2023-07-16T12:48:26;3.90;;;1.97;;
4244;SDS011;2136;48.502;9.194;2023-07-16T12:50:54;1.60;;;1.50;;
4244;SDS011;2136;48.502;9.194;2023-07-16T12:53:21;1.40;;;1.27;;
4244;SDS011;2136;48.502;9.194;2023-07-16T12:55:48;1.60;;;1.50;;
4244;SDS011;2136;48.502;9.194;2023-07-16T12:58:14;2.10;;;1.60;;
4244;SDS011;2136;48.502;9.194;2023-07-16T13:00:41;2.60;;;1.57;;
4244;SDS011;2136;48.502;9.194;2023-07-16T13:03:08;1.60;;;1.50;;
4244;SDS011;2136;48.502;9.194;2023-07-16T13:05:36;1.90;;;1.77;;
4244;SDS011;2136;48.502;9.194;2023-07-16T13:08:05;3.43;;;1.70;;
4244;SDS011;2136;48.502;9.194;2023-07-16T13:10:31;3.53;;;2.40;;
4244;SDS011;2136;48.502;9.194;2023-07-16T13:12:58;1.73;;;1.63;;
4244;SDS011;2136;48.502;9.194;2023-07-16T13:15:25;2.70;;;1.60;;
4244;SDS011;2136;48.502;9.194;2023-07-16T13:17:52;3.90;;;1.40;;
4244;SDS011;2136;48.502;9.194;2023-07-16T13:20:20;1.50;;;1.40;;
4244;SDS011;2136;48.502;9.194;2023-07-16T13:22:48;3.07;;;1.63;;
4244;SDS011;2136;48.502;9.194;2023-07-16T13:25:17;3.47;;;2.00;;
4244;SDS011;2136;48.502;9.194;2023-07-16T13:27:44;2.20;;;1.70;;
4244;SDS011;2136;48.502;9.194;2023-07-16T13:30:11;2.50;;;1.73;;
4244;SDS011;2136;48.502;9.194;2023-07-16T13:32:38;6.90;;;1.70;;
4244;SDS011;2136;48.502;9.194;2023-07-16T13:35:05;1.80;;;1.40;;
4244;SDS011;2136;48.502;9.194;2023-07-16T13:37:32;1.80;;;1.70;;
4244;SDS011;2136;48.502;9.194;2023-07-16T13:39:59;2.50;;;1.80;;
4244;SDS011;2136;48.502;9.194;2023-07-16T13:42:27;6.57;;;2.00;;
4244;SDS011;2136;48.502;9.194;2023-07-16T13:44:54;3.13;;;2.00;;
4244;SDS011;2136;48.502;9.194;2023-07-16T13:47:21;2.10;;;1.90;;
4244;SDS011;2136;48.502;9.194;2023-07-16T13:49:48;3.83;;;2.07;;
4244;SDS011;2136;48.502;9.194;2023-07-16T13:52:17;2.00;;;1.50;;
4244;SDS011;2136;48.502;9.194;2023-07-16T13:54:43;3.27;;;2.33;;
4244;SDS011;2136;48.502;9.194;2023-07-16T13:57:10;2.53;;;1.90;;
4244;SDS011;2136;48.502;9.194;2023-07-16T13:59:38;5.60;;;2.10;;
4244;SDS011;2136;48.502;9.194;2023-07-16T14:02:05;4.70;;;2.33;;
4244;SDS011;2136;48.502;9.194;2023-07-16T14:04:32;2.60;;;1.97;;
4244;SDS011;2136;48.502;9.194;2023-07-16T14:06:59;2.73;;;2.17;;
4244;SDS011;2136;48.502;9.194;2023-07-16T14:09:26;3.93;;;1.90;;
4244;SDS011;2136;48.502;9.194;2023-07-16T14:11:53;2.30;;;1.73;;
4244;SDS011;2136;48.502;9.194;2023-07-16T14:14:20;2.97;;;2.23;;
4244;SDS011;2136;48.502;9.194;2023-07-16T14:16:49;6.40;;;2.13;;
4244;SDS011;2136;48.502;9.194;2023-07-16T14:19:16;4.67;;;2.13;;
4244;SDS011;2136;48.502;9.194;2023-07-16T14:21:43;2.30;;;1.73;;
4244;SDS011;2136;48.502;9.194;2023-07-16T14:24:09;2.10;;;1.90;;
4244;SDS011;2136;48.502;9.194;2023-07-16T14:26:35;2.70;;;2.30;;
4244;SDS011;2136;48.502;9.194;2023-07-16T14:29:02;2.13;;;2.00;;
4244;SDS011;2136;48.502;9.194;2023-07-16T14:31:29;3.97;;;1.90;;
4244;SDS011;2136;48.502;9.194;2023-07-16T14:33:57;5.40;;;1.50;;
4244;SDS011;2136;48.502;9.194;2023-07-16T14:36:24;5.63;;;2.00;;
4244;SDS011;2136;48.502;9.194;2023-07-16T14:38:52;2.10;;;2.00;;
4244;SDS011;2136;48.502;9.194;2023-07-16T14:41:19;3.07;;;1.30;;
4244;SDS011;2136;48.502;9.194;2023-07-16T14:43:46;3.93;;;1.90;;
4244;SDS011;2136;48.502;9.194;2023-07-16T14:46:15;2.40;;;1.90;;
4244;SDS011;2136;48.502;9.194;2023-07-16T14:48:42;2.10;;;1.83;;
4244;SDS011;2136;48.502;9.194;2023-07-16T14:51:10;2.63;;;2.37;;
4244;SDS011;2136;48.502;9.194;2023-07-16T14:53:38;2.23;;;2.00;;
4244;SDS011;2136;48.502;9.194;2023-07-16T14:56:05;2.53;;;1.80;;
4244;SDS011;2136;48.502;9.194;2023-07-16T14:58:32;2.10;;;1.73;;
4244;SDS011;2136;48.502;9.194;2023-07-16T15:01:01;1.97;;;1.50;;
4244;SDS011;2136;48.502;9.194;2023-07-16T15:03:32;3.80;;;1.93;;
4244;SDS011;2136;48.502;9.194;2023-07-16T15:05:59;2.83;;;1.90;;
4244;SDS011;2136;48.502;9.194;2023-07-16T15:08:28;4.60;;;2.33;;
4244;SDS011;2136;48.502;9.194;2023-07-16T15:10:55;2.20;;;1.83;;
4244;SDS011;2136;48.502;9.194;2023-07-16T15:13:22;2.45;;;1.98;;
4244;SDS011;2136;48.502;9.194;2023-07-16T15:15:50;3.30;;;1.88;;
4244;SDS011;2136;48.502;9.194;2023-07-16T15:18:17;6.23;;;2.20;;